Main page
METAR-TAF:

METAR-TAF

Airports :

Cuneo International Airport

Cuneo, Italy

latitude: 44-32-47N, longitude: 007-37-20E, elevation: 386 m

Current weather observation

The report was made 35 minutes ago, at 13:50 UTC
Wind 5 kt from the East/Northeast, varying between North/Northwest and East
Temperature 26°C
Humidity 58%
Pressure 1017 hPa
Visibility 10 km or more

METAR: LIMZ 171350Z AUTO 06005KT 340V100 9999 SCT042/// BKN056/// 26/17 Q1017

Time: 16:25 (14:25 UTC)

Forecast

The report was made 3 hours and 25 minutes ago, at 11:00 UTC
Forecast valid from 17 at 12 UTC to 18 at 12 UTC
Wind 5 kt from variable directions
Visibility 10 km or more
Few clouds at a height of 4000 ft

TAF: LIMZ 171100Z 1712/1812 VRB05KT 9999 FEW040

Weather observations and forecasts of more than 4000 airports (METAR and TAF reports).

The available stations are represented by yellow and red dots on the map.

Hover mouse over dot to see the name of the station.

Then click to see weather observations and forecasts.

To change the map : click on the green buttons with a black cross to zoom in, on the green button with a dash to zoom out, or on the green arrows for adjacent maps.


METAR-TAF: